sensor_id;sensor_type;location;lat;lon;timestamp;P1;durP1;ratioP1;P2;durP2;ratioP2
69900;SDS011;57183;50.930;5.406;2022-12-07T00:01:42;27.55;;;16.42;;
69900;SDS011;57183;50.930;5.406;2022-12-07T00:04:13;24.63;;;16.13;;
69900;SDS011;57183;50.930;5.406;2022-12-07T00:06:42;26.15;;;16.50;;
69900;SDS011;57183;50.930;5.406;2022-12-07T00:09:10;25.98;;;16.15;;
69900;SDS011;57183;50.930;5.406;2022-12-07T00:11:38;26.45;;;16.80;;
69900;SDS011;57183;50.930;5.406;2022-12-07T00:14:24;27.25;;;16.00;;
69900;SDS011;57183;50.930;5.406;2022-12-07T00:16:50;25.65;;;16.58;;
69900;SDS011;57183;50.930;5.406;2022-12-07T00:19:17;25.98;;;17.38;;
69900;SDS011;57183;50.930;5.406;2022-12-07T00:21:43;28.25;;;16.38;;
69900;SDS011;57183;50.930;5.406;2022-12-07T00:24:12;24.42;;;16.13;;
69900;SDS011;57183;50.930;5.406;2022-12-07T00:26:38;26.70;;;17.40;;
69900;SDS011;57183;50.930;5.406;2022-12-07T00:29:06;26.50;;;16.65;;
69900;SDS011;57183;50.930;5.406;2022-12-07T00:31:41;28.83;;;17.83;;
69900;SDS011;57183;50.930;5.406;2022-12-07T00:34:07;26.98;;;17.15;;
69900;SDS011;57183;50.930;5.406;2022-12-07T00:36:54;25.70;;;17.10;;
69900;SDS011;57183;50.930;5.406;2022-12-07T00:39:20;29.35;;;17.02;;
69900;SDS011;57183;50.930;5.406;2022-12-07T00:41:46;26.80;;;18.60;;
69900;SDS011;57183;50.930;5.406;2022-12-07T00:44:12;28.30;;;18.02;;
69900;SDS011;57183;50.930;5.406;2022-12-07T00:46:38;27.50;;;17.02;;
69900;SDS011;57183;50.930;5.406;2022-12-07T00:49:04;29.92;;;19.00;;
69900;SDS011;57183;50.930;5.406;2022-12-07T00:51:30;28.13;;;19.63;;
69900;SDS011;57183;50.930;5.406;2022-12-07T00:53:56;32.13;;;20.15;;
69900;SDS011;57183;50.930;5.406;2022-12-07T00:56:24;30.42;;;18.92;;
69900;SDS011;57183;50.930;5.406;2022-12-07T00:58:52;29.52;;;18.35;;
69900;SDS011;57183;50.930;5.406;2022-12-07T01:01:20;31.00;;;20.42;;
69900;SDS011;57183;50.930;5.406;2022-12-07T01:03:46;31.58;;;18.88;;
69900;SDS011;57183;50.930;5.406;2022-12-07T01:06:17;27.70;;;17.73;;
69900;SDS011;57183;50.930;5.406;2022-12-07T01:08:46;32.72;;;18.05;;
69900;SDS011;57183;50.930;5.406;2022-12-07T01:11:13;25.42;;;18.13;;
69900;SDS011;57183;50.930;5.406;2022-12-07T01:13:40;32.53;;;18.45;;
69900;SDS011;57183;50.930;5.406;2022-12-07T01:16:06;28.67;;;18.40;;
69900;SDS011;57183;50.930;5.406;2022-12-07T01:18:33;33.78;;;19.40;;
69900;SDS011;57183;50.930;5.406;2022-12-07T01:21:11;34.63;;;20.80;;
69900;SDS011;57183;50.930;5.406;2022-12-07T01:23:40;32.78;;;20.20;;
69900;SDS011;57183;50.930;5.406;2022-12-07T01:26:13;31.85;;;19.52;;
69900;SDS011;57183;50.930;5.406;2022-12-07T01:28:41;31.80;;;20.38;;
69900;SDS011;57183;50.930;5.406;2022-12-07T01:31:08;26.90;;;18.98;;
69900;SDS011;57183;50.930;5.406;2022-12-07T01:33:43;30.08;;;19.48;;
69900;SDS011;57183;50.930;5.406;2022-12-07T01:38:39;27.65;;;18.40;;
69900;SDS011;57183;50.930;5.406;2022-12-07T01:41:05;28.02;;;18.98;;
69900;SDS011;57183;50.930;5.406;2022-12-07T01:43:32;28.15;;;18.88;;
69900;SDS011;57183;50.930;5.406;2022-12-07T01:45:58;32.80;;;19.52;;
69900;SDS011;57183;50.930;5.406;2022-12-07T01:48:26;27.50;;;18.75;;
69900;SDS011;57183;50.930;5.406;2022-12-07T01:50:56;28.33;;;18.70;;
69900;SDS011;57183;50.930;5.406;2022-12-07T01:53:28;27.25;;;19.92;;
69900;SDS011;57183;50.930;5.406;2022-12-07T01:55:56;30.08;;;20.40;;
69900;SDS011;57183;50.930;5.406;2022-12-07T01:58:26;33.63;;;19.83;;
69900;SDS011;57183;50.930;5.406;2022-12-07T02:00:53;29.08;;;18.20;;
69900;SDS011;57183;50.930;5.406;2022-12-07T02:05:50;26.42;;;18.10;;
69900;SDS011;57183;50.930;5.406;2022-12-07T02:08:18;25.05;;;17.83;;
69900;SDS011;57183;50.930;5.406;2022-12-07T02:10:44;28.25;;;18.08;;
69900;SDS011;57183;50.930;5.406;2022-12-07T02:13:12;24.40;;;17.73;;
69900;SDS011;57183;50.930;5.406;2022-12-07T02:15:45;33.42;;;19.52;;
69900;SDS011;57183;50.930;5.406;2022-12-07T02:18:16;28.83;;;20.38;;
69900;SDS011;57183;50.930;5.406;2022-12-07T02:21:01;26.35;;;17.60;;
69900;SDS011;57183;50.930;5.406;2022-12-07T02:27:02;27.02;;;17.23;;
69900;SDS011;57183;50.930;5.406;2022-12-07T02:30:36;26.98;;;17.20;;
69900;SDS011;57183;50.930;5.406;2022-12-07T02:32:42;28.38;;;18.63;;
69900;SDS011;57183;50.930;5.406;2022-12-07T02:40:48;30.60;;;18.88;;
69900;SDS011;57183;50.930;5.406;2022-12-07T02:43:25;29.27;;;18.88;;
69900;SDS011;57183;50.930;5.406;2022-12-07T02:45:51;27.40;;;17.65;;
69900;SDS011;57183;50.930;5.406;2022-12-07T02:48:23;31.08;;;18.75;;
69900;SDS011;57183;50.930;5.406;2022-12-07T02:50:52;27.70;;;19.20;;
69900;SDS011;57183;50.930;5.406;2022-12-07T02:53:38;28.52;;;20.13;;
69900;SDS011;57183;50.930;5.406;2022-12-07T02:56:15;29.48;;;20.02;;
69900;SDS011;57183;50.930;5.406;2022-12-07T02:59:58;29.15;;;17.75;;
69900;SDS011;57183;50.930;5.406;2022-12-07T03:07:11;34.22;;;19.88;;
69900;SDS011;57183;50.930;5.406;2022-12-07T03:09:44;37.95;;;21.25;;
69900;SDS011;57183;50.930;5.406;2022-12-07T03:12:32;31.13;;;19.08;;
69900;SDS011;57183;50.930;5.406;2022-12-07T03:15:18;30.95;;;20.48;;
69900;SDS011;57183;50.930;5.406;2022-12-07T03:17:56;32.83;;;20.35;;
69900;SDS011;57183;50.930;5.406;2022-12-07T03:20:25;29.83;;;19.67;;
69900;SDS011;57183;50.930;5.406;2022-12-07T03:22:52;29.63;;;19.17;;
69900;SDS011;57183;50.930;5.406;2022-12-07T03:25:19;36.33;;;21.65;;
69900;SDS011;57183;50.930;5.406;2022-12-07T03:27:49;29.70;;;21.23;;
69900;SDS011;57183;50.930;5.406;2022-12-07T03:30:29;34.95;;;22.33;;
69900;SDS011;57183;50.930;5.406;2022-12-07T03:36:06;35.42;;;21.60;;
69900;SDS011;57183;50.930;5.406;2022-12-07T03:41:18;39.78;;;24.15;;
69900;SDS011;57183;50.930;5.406;2022-12-07T03:43:48;32.50;;;23.02;;
69900;SDS011;57183;50.930;5.406;2022-12-07T03:46:19;37.25;;;23.65;;
69900;SDS011;57183;50.930;5.406;2022-12-07T03:48:55;36.75;;;23.80;;
69900;SDS011;57183;50.930;5.406;2022-12-07T03:51:51;38.50;;;24.98;;
69900;SDS011;57183;50.930;5.406;2022-12-07T03:54:28;39.17;;;25.67;;
69900;SDS011;57183;50.930;5.406;2022-12-07T03:57:01;43.03;;;26.33;;
69900;SDS011;57183;50.930;5.406;2022-12-07T03:59:27;41.05;;;24.02;;
69900;SDS011;57183;50.930;5.406;2022-12-07T04:01:56;36.38;;;23.38;;
69900;SDS011;57183;50.930;5.406;2022-12-07T04:04:26;38.10;;;26.10;;
69900;SDS011;57183;50.930;5.406;2022-12-07T04:06:54;40.67;;;24.50;;
69900;SDS011;57183;50.930;5.406;2022-12-07T04:09:23;38.08;;;22.92;;
69900;SDS011;57183;50.930;5.406;2022-12-07T04:11:49;39.17;;;23.15;;
69900;SDS011;57183;50.930;5.406;2022-12-07T04:14:15;39.35;;;24.95;;
69900;SDS011;57183;50.930;5.406;2022-12-07T04:16:44;38.67;;;24.90;;
69900;SDS011;57183;50.930;5.406;2022-12-07T04:19:29;35.35;;;24.90;;
69900;SDS011;57183;50.930;5.406;2022-12-07T04:21:58;35.03;;;24.02;;
69900;SDS011;57183;50.930;5.406;2022-12-07T04:24:27;36.80;;;23.98;;
69900;SDS011;57183;50.930;5.406;2022-12-07T04:26:54;37.67;;;23.58;;
69900;SDS011;57183;50.930;5.406;2022-12-07T04:29:23;39.90;;;23.33;;
69900;SDS011;57183;50.930;5.406;2022-12-07T04:31:49;37.15;;;25.45;;
69900;SDS011;57183;50.930;5.406;2022-12-07T04:34:16;33.60;;;23.50;;
69900;SDS011;57183;50.930;5.406;2022-12-07T04:36:43;36.03;;;23.20;;
69900;SDS011;57183;50.930;5.406;2022-12-07T04:42:14;35.40;;;23.50;;
69900;SDS011;57183;50.930;5.406;2022-12-07T04:44:42;41.08;;;24.52;;
69900;SDS011;57183;50.930;5.406;2022-12-07T04:47:14;37.17;;;23.63;;
69900;SDS011;57183;50.930;5.406;2022-12-07T04:49:40;39.35;;;25.17;;
69900;SDS011;57183;50.930;5.406;2022-12-07T04:52:08;34.05;;;23.90;;
69900;SDS011;57183;50.930;5.406;2022-12-07T04:54:33;39.65;;;25.92;;
69900;SDS011;57183;50.930;5.406;2022-12-07T04:56:59;40.25;;;24.80;;
69900;SDS011;57183;50.930;5.406;2022-12-07T04:59:25;48.50;;;25.58;;
69900;SDS011;57183;50.930;5.406;2022-12-07T05:01:58;40.13;;;22.88;;
69900;SDS011;57183;50.930;5.406;2022-12-07T05:04:24;38.22;;;24.58;;
69900;SDS011;57183;50.930;5.406;2022-12-07T05:06:50;37.75;;;25.17;;
69900;SDS011;57183;50.930;5.406;2022-12-07T05:09:16;36.08;;;21.65;;
69900;SDS011;57183;50.930;5.406;2022-12-07T05:11:41;33.47;;;21.05;;
69900;SDS011;57183;50.930;5.406;2022-12-07T05:14:11;37.75;;;22.98;;
69900;SDS011;57183;50.930;5.406;2022-12-07T05:16:42;36.28;;;21.73;;
69900;SDS011;57183;50.930;5.406;2022-12-07T05:19:09;32.58;;;21.65;;
69900;SDS011;57183;50.930;5.406;2022-12-07T05:21:36;33.35;;;20.95;;
69900;SDS011;57183;50.930;5.406;2022-12-07T05:24:02;27.02;;;18.38;;
69900;SDS011;57183;50.930;5.406;2022-12-07T05:26:29;30.05;;;19.15;;
69900;SDS011;57183;50.930;5.406;2022-12-07T05:28:55;30.65;;;21.45;;
69900;SDS011;57183;50.930;5.406;2022-12-07T05:31:21;33.75;;;21.42;;
69900;SDS011;57183;50.930;5.406;2022-12-07T05:33:48;37.10;;;23.20;;
69900;SDS011;57183;50.930;5.406;2022-12-07T05:36:14;41.67;;;24.02;;
69900;SDS011;57183;50.930;5.406;2022-12-07T05:38:40;36.88;;;21.83;;
69900;SDS011;57183;50.930;5.406;2022-12-07T05:41:07;37.95;;;22.70;;
69900;SDS011;57183;50.930;5.406;2022-12-07T05:43:57;38.67;;;20.10;;
69900;SDS011;57183;50.930;5.406;2022-12-07T05:46:22;34.28;;;21.92;;
69900;SDS011;57183;50.930;5.406;2022-12-07T05:48:48;37.47;;;23.00;;
69900;SDS011;57183;50.930;5.406;2022-12-07T05:51:14;37.50;;;22.83;;
69900;SDS011;57183;50.930;5.406;2022-12-07T05:53:40;32.22;;;21.50;;
69900;SDS011;57183;50.930;5.406;2022-12-07T05:56:06;36.47;;;23.23;;
69900;SDS011;57183;50.930;5.406;2022-12-07T05:58:32;34.55;;;23.40;;
69900;SDS011;57183;50.930;5.406;2022-12-07T06:01:16;33.00;;;18.63;;
69900;SDS011;57183;50.930;5.406;2022-12-07T06:03:42;34.03;;;21.70;;
69900;SDS011;57183;50.930;5.406;2022-12-07T06:06:08;38.03;;;23.52;;
69900;SDS011;57183;50.930;5.406;2022-12-07T06:08:33;39.70;;;21.55;;
69900;SDS011;57183;50.930;5.406;2022-12-07T06:10:59;37.15;;;22.45;;
69900;SDS011;57183;50.930;5.406;2022-12-07T06:13:43;37.50;;;22.13;;
69900;SDS011;57183;50.930;5.406;2022-12-07T06:16:09;35.38;;;22.73;;
69900;SDS011;57183;50.930;5.406;2022-12-07T06:18:35;34.30;;;22.63;;
69900;SDS011;57183;50.930;5.406;2022-12-07T06:21:00;34.22;;;20.13;;
69900;SDS011;57183;50.930;5.406;2022-12-07T06:23:26;37.65;;;22.35;;
69900;SDS011;57183;50.930;5.406;2022-12-07T06:25:52;33.05;;;21.08;;
69900;SDS011;57183;50.930;5.406;2022-12-07T06:28:18;33.33;;;21.83;;
69900;SDS011;57183;50.930;5.406;2022-12-07T06:30:43;52.78;;;25.10;;
69900;SDS011;57183;50.930;5.406;2022-12-07T06:33:09;33.78;;;22.50;;
69900;SDS011;57183;50.930;5.406;2022-12-07T06:35:35;37.78;;;24.17;;
69900;SDS011;57183;50.930;5.406;2022-12-07T06:38:01;39.47;;;23.75;;
69900;SDS011;57183;50.930;5.406;2022-12-07T06:40:26;40.47;;;24.77;;
69900;SDS011;57183;50.930;5.406;2022-12-07T06:42:52;38.10;;;22.27;;
69900;SDS011;57183;50.930;5.406;2022-12-07T06:45:18;31.73;;;21.13;;
69900;SDS011;57183;50.930;5.406;2022-12-07T06:47:44;31.30;;;20.15;;
69900;SDS011;57183;50.930;5.406;2022-12-07T06:50:09;28.95;;;19.15;;
69900;SDS011;57183;50.930;5.406;2022-12-07T06:52:35;29.90;;;19.27;;
69900;SDS011;57183;50.930;5.406;2022-12-07T06:55:01;29.73;;;18.98;;
69900;SDS011;57183;50.930;5.406;2022-12-07T06:57:27;32.85;;;19.13;;
69900;SDS011;57183;50.930;5.406;2022-12-07T06:59:52;30.77;;;19.23;;
69900;SDS011;57183;50.930;5.406;2022-12-07T07:02:21;25.27;;;18.27;;
69900;SDS011;57183;50.930;5.406;2022-12-07T07:04:50;27.45;;;18.38;;
69900;SDS011;57183;50.930;5.406;2022-12-07T07:07:16;28.98;;;19.00;;
69900;SDS011;57183;50.930;5.406;2022-12-07T07:09:41;28.45;;;18.80;;
69900;SDS011;57183;50.930;5.406;2022-12-07T07:12:07;32.30;;;19.92;;
69900;SDS011;57183;50.930;5.406;2022-12-07T07:14:33;38.17;;;20.73;;
69900;SDS011;57183;50.930;5.406;2022-12-07T07:16:58;30.10;;;20.08;;
69900;SDS011;57183;50.930;5.406;2022-12-07T07:19:24;37.75;;;22.48;;
69900;SDS011;57183;50.930;5.406;2022-12-07T07:21:50;33.70;;;20.88;;
69900;SDS011;57183;50.930;5.406;2022-12-07T07:24:15;32.88;;;21.90;;
69900;SDS011;57183;50.930;5.406;2022-12-07T07:26:41;33.15;;;21.60;;
69900;SDS011;57183;50.930;5.406;2022-12-07T07:29:07;32.33;;;20.67;;
69900;SDS011;57183;50.930;5.406;2022-12-07T07:31:33;30.52;;;20.63;;
69900;SDS011;57183;50.930;5.406;2022-12-07T07:34:00;26.92;;;19.75;;
69900;SDS011;57183;50.930;5.406;2022-12-07T07:36:26;28.40;;;18.05;;
69900;SDS011;57183;50.930;5.406;2022-12-07T07:38:52;30.98;;;20.45;;
69900;SDS011;57183;50.930;5.406;2022-12-07T07:41:17;26.88;;;19.35;;
69900;SDS011;57183;50.930;5.406;2022-12-07T07:43:43;31.38;;;19.58;;
69900;SDS011;57183;50.930;5.406;2022-12-07T07:46:09;33.45;;;20.33;;
69900;SDS011;57183;50.930;5.406;2022-12-07T07:48:35;28.08;;;20.05;;
69900;SDS011;57183;50.930;5.406;2022-12-07T07:51:04;33.13;;;20.38;;
69900;SDS011;57183;50.930;5.406;2022-12-07T07:53:33;31.52;;;20.90;;
69900;SDS011;57183;50.930;5.406;2022-12-07T07:55:59;32.67;;;19.60;;
69900;SDS011;57183;50.930;5.406;2022-12-07T07:58:25;30.13;;;18.95;;
69900;SDS011;57183;50.930;5.406;2022-12-07T08:00:51;28.50;;;20.30;;
69900;SDS011;57183;50.930;5.406;2022-12-07T08:03:17;28.20;;;19.23;;
69900;SDS011;57183;50.930;5.406;2022-12-07T08:05:42;28.40;;;19.15;;
69900;SDS011;57183;50.930;5.406;2022-12-07T08:08:08;30.60;;;19.10;;
69900;SDS011;57183;50.930;5.406;2022-12-07T08:10:34;26.73;;;19.73;;
69900;SDS011;57183;50.930;5.406;2022-12-07T08:13:00;32.85;;;19.67;;
69900;SDS011;57183;50.930;5.406;2022-12-07T08:15:45;24.80;;;16.92;;
69900;SDS011;57183;50.930;5.406;2022-12-07T08:18:12;33.40;;;18.55;;
69900;SDS011;57183;50.930;5.406;2022-12-07T08:20:39;26.80;;;18.88;;
69900;SDS011;57183;50.930;5.406;2022-12-07T08:23:06;26.58;;;18.33;;
69900;SDS011;57183;50.930;5.406;2022-12-07T08:25:32;25.05;;;18.90;;
69900;SDS011;57183;50.930;5.406;2022-12-07T08:27:58;26.23;;;20.10;;
69900;SDS011;57183;50.930;5.406;2022-12-07T08:30:27;30.25;;;20.55;;
69900;SDS011;57183;50.930;5.406;2022-12-07T08:32:53;22.95;;;17.65;;
69900;SDS011;57183;50.930;5.406;2022-12-07T08:35:19;28.80;;;19.13;;
69900;SDS011;57183;50.930;5.406;2022-12-07T08:37:46;29.02;;;20.40;;
69900;SDS011;57183;50.930;5.406;2022-12-07T08:40:12;32.70;;;22.20;;
69900;SDS011;57183;50.930;5.406;2022-12-07T08:42:40;35.53;;;23.00;;
69900;SDS011;57183;50.930;5.406;2022-12-07T08:45:08;38.40;;;23.58;;
69900;SDS011;57183;50.930;5.406;2022-12-07T08:47:36;42.78;;;24.35;;
69900;SDS011;57183;50.930;5.406;2022-12-07T08:50:05;33.03;;;21.52;;
69900;SDS011;57183;50.930;5.406;2022-12-07T08:52:33;40.40;;;24.33;;
69900;SDS011;57183;50.930;5.406;2022-12-07T08:55:00;38.25;;;23.02;;
69900;SDS011;57183;50.930;5.406;2022-12-07T08:57:28;37.60;;;23.27;;
69900;SDS011;57183;50.930;5.406;2022-12-07T08:59:54;42.55;;;26.20;;
69900;SDS011;57183;50.930;5.406;2022-12-07T09:02:21;37.95;;;23.08;;
69900;SDS011;57183;50.930;5.406;2022-12-07T09:04:52;39.95;;;24.55;;
69900;SDS011;57183;50.930;5.406;2022-12-07T09:07:18;37.47;;;24.13;;
69900;SDS011;57183;50.930;5.406;2022-12-07T09:09:44;46.30;;;26.13;;
69900;SDS011;57183;50.930;5.406;2022-12-07T09:12:10;38.70;;;25.92;;
69900;SDS011;57183;50.930;5.406;2022-12-07T09:14:36;40.25;;;23.33;;
69900;SDS011;57183;50.930;5.406;2022-12-07T09:17:09;34.67;;;22.15;;
69900;SDS011;57183;50.930;5.406;2022-12-07T09:19:36;38.13;;;24.45;;
69900;SDS011;57183;50.930;5.406;2022-12-07T09:22:02;35.95;;;22.42;;
69900;SDS011;57183;50.930;5.406;2022-12-07T09:24:29;37.13;;;20.33;;
69900;SDS011;57183;50.930;5.406;2022-12-07T09:26:56;34.90;;;22.38;;
69900;SDS011;57183;50.930;5.406;2022-12-07T09:29:22;32.00;;;20.40;;
69900;SDS011;57183;50.930;5.406;2022-12-07T09:31:48;35.63;;;21.30;;
69900;SDS011;57183;50.930;5.406;2022-12-07T09:34:14;36.97;;;21.33;;
69900;SDS011;57183;50.930;5.406;2022-12-07T09:36:40;31.75;;;20.90;;
69900;SDS011;57183;50.930;5.406;2022-12-07T09:39:05;31.90;;;19.75;;
69900;SDS011;57183;50.930;5.406;2022-12-07T09:41:31;27.10;;;19.08;;
69900;SDS011;57183;50.930;5.406;2022-12-07T09:44:03;30.05;;;18.60;;
69900;SDS011;57183;50.930;5.406;2022-12-07T09:46:35;28.65;;;18.50;;
69900;SDS011;57183;50.930;5.406;2022-12-07T09:49:03;26.15;;;16.98;;
69900;SDS011;57183;50.930;5.406;2022-12-07T09:51:30;24.58;;;15.90;;
69900;SDS011;57183;50.930;5.406;2022-12-07T09:53:57;23.90;;;16.65;;
69900;SDS011;57183;50.930;5.406;2022-12-07T09:56:28;22.05;;;15.23;;
69900;SDS011;57183;50.930;5.406;2022-12-07T10:01:28;25.73;;;16.02;;
69900;SDS011;57183;50.930;5.406;2022-12-07T10:04:18;18.92;;;13.88;;
69900;SDS011;57183;50.930;5.406;2022-12-07T10:06:47;19.23;;;13.55;;
69900;SDS011;57183;50.930;5.406;2022-12-07T10:09:16;23.80;;;14.93;;
69900;SDS011;57183;50.930;5.406;2022-12-07T10:14:37;16.63;;;11.23;;
69900;SDS011;57183;50.930;5.406;2022-12-07T10:23:02;18.98;;;11.68;;
69900;SDS011;57183;50.930;5.406;2022-12-07T10:25:33;13.27;;;9.73;;
69900;SDS011;57183;50.930;5.406;2022-12-07T10:28:10;13.25;;;8.38;;
69900;SDS011;57183;50.930;5.406;2022-12-07T10:36:17;14.43;;;8.55;;
69900;SDS011;57183;50.930;5.406;2022-12-07T10:39:09;16.88;;;8.63;;
69900;SDS011;57183;50.930;5.406;2022-12-07T10:41:57;10.75;;;7.47;;
69900;SDS011;57183;50.930;5.406;2022-12-07T10:44:28;14.43;;;7.93;;
69900;SDS011;57183;50.930;5.406;2022-12-07T10:52:34;14.82;;;8.00;;
69900;SDS011;57183;50.930;5.406;2022-12-07T11:00:52;13.18;;;7.88;;
69900;SDS011;57183;50.930;5.406;2022-12-07T11:06:35;13.32;;;8.27;;
69900;SDS011;57183;50.930;5.406;2022-12-07T11:11:59;15.57;;;8.38;;
69900;SDS011;57183;50.930;5.406;2022-12-07T11:20:34;17.30;;;9.48;;
69900;SDS011;57183;50.930;5.406;2022-12-07T11:25:46;13.90;;;8.50;;
69900;SDS011;57183;50.930;5.406;2022-12-07T11:31:38;16.33;;;8.43;;
69900;SDS011;57183;50.930;5.406;2022-12-07T11:34:20;13.23;;;8.80;;
69900;SDS011;57183;50.930;5.406;2022-12-07T11:37:02;14.73;;;9.18;;
69900;SDS011;57183;50.930;5.406;2022-12-07T11:39:39;17.95;;;9.77;;
69900;SDS011;57183;50.930;5.406;2022-12-07T11:42:27;18.00;;;8.30;;
69900;SDS011;57183;50.930;5.406;2022-12-07T11:48:00;13.93;;;8.50;;
69900;SDS011;57183;50.930;5.406;2022-12-07T11:50:38;14.25;;;9.45;;
69900;SDS011;57183;50.930;5.406;2022-12-07T11:53:27;12.75;;;8.18;;
69900;SDS011;57183;50.930;5.406;2022-12-07T11:56:02;13.57;;;8.15;;
69900;SDS011;57183;50.930;5.406;2022-12-07T12:04:32;9.43;;;7.47;;
69900;SDS011;57183;50.930;5.406;2022-12-07T12:07:21;10.20;;;6.30;;
69900;SDS011;57183;50.930;5.406;2022-12-07T12:10:02;13.63;;;6.93;;
69900;SDS011;57183;50.930;5.406;2022-12-07T12:20:57;3.92;;;2.67;;
69900;SDS011;57183;50.930;5.406;2022-12-07T12:25:58;10.43;;;6.75;;
69900;SDS011;57183;50.930;5.406;2022-12-07T12:28:35;9.80;;;4.68;;
69900;SDS011;57183;50.930;5.406;2022-12-07T12:31:07;10.25;;;4.93;;
69900;SDS011;57183;50.930;5.406;2022-12-07T12:33:38;7.53;;;4.53;;
69900;SDS011;57183;50.930;5.406;2022-12-07T12:36:25;8.95;;;4.50;;
69900;SDS011;57183;50.930;5.406;2022-12-07T12:44:03;4.72;;;2.95;;
69900;SDS011;57183;50.930;5.406;2022-12-07T12:49:34;8.98;;;4.22;;
69900;SDS011;57183;50.930;5.406;2022-12-07T12:55:02;5.68;;;3.65;;
69900;SDS011;57183;50.930;5.406;2022-12-07T12:57:36;5.45;;;3.78;;
69900;SDS011;57183;50.930;5.406;2022-12-07T13:00:23;5.68;;;3.00;;
69900;SDS011;57183;50.930;5.406;2022-12-07T13:02:54;9.57;;;3.47;;
69900;SDS011;57183;50.930;5.406;2022-12-07T13:05:22;5.97;;;3.45;;
69900;SDS011;57183;50.930;5.406;2022-12-07T13:07:53;6.53;;;3.38;;
69900;SDS011;57183;50.930;5.406;2022-12-07T13:15:43;6.40;;;2.97;;
69900;SDS011;57183;50.930;5.406;2022-12-07T13:18:37;4.70;;;2.83;;
69900;SDS011;57183;50.930;5.406;2022-12-07T13:23:52;5.47;;;2.85;;
69900;SDS011;57183;50.930;5.406;2022-12-07T13:31:57;7.20;;;1.95;;
69900;SDS011;57183;50.930;5.406;2022-12-07T13:37:32;8.60;;;1.90;;
69900;SDS011;57183;50.930;5.406;2022-12-07T13:39:59;6.18;;;2.25;;
69900;SDS011;57183;50.930;5.406;2022-12-07T13:42:40;7.22;;;3.00;;
69900;SDS011;57183;50.930;5.406;2022-12-07T13:45:23;5.70;;;2.55;;
69900;SDS011;57183;50.930;5.406;2022-12-07T13:51:00;6.85;;;3.42;;
69900;SDS011;57183;50.930;5.406;2022-12-07T13:53:30;6.25;;;2.08;;
69900;SDS011;57183;50.930;5.406;2022-12-07T13:55:59;6.82;;;2.28;;
69900;SDS011;57183;50.930;5.406;2022-12-07T13:58:26;3.55;;;1.92;;
69900;SDS011;57183;50.930;5.406;2022-12-07T14:00:55;2.88;;;2.10;;
69900;SDS011;57183;50.930;5.406;2022-12-07T14:03:32;5.55;;;2.28;;
69900;SDS011;57183;50.930;5.406;2022-12-07T14:11:48;5.22;;;2.38;;
69900;SDS011;57183;50.930;5.406;2022-12-07T14:14:23;11.23;;;2.17;;
69900;SDS011;57183;50.930;5.406;2022-12-07T14:16:58;6.82;;;2.10;;
69900;SDS011;57183;50.930;5.406;2022-12-07T14:27:38;6.13;;;2.85;;
69900;SDS011;57183;50.930;5.406;2022-12-07T14:30:15;7.88;;;2.88;;
69900;SDS011;57183;50.930;5.406;2022-12-07T14:32:42;5.60;;;2.42;;
69900;SDS011;57183;50.930;5.406;2022-12-07T14:35:13;9.20;;;3.58;;
69900;SDS011;57183;50.930;5.406;2022-12-07T14:37:41;9.65;;;4.45;;
69900;SDS011;57183;50.930;5.406;2022-12-07T14:40:11;9.70;;;5.65;;
69900;SDS011;57183;50.930;5.406;2022-12-07T14:42:39;7.25;;;4.72;;
69900;SDS011;57183;50.930;5.406;2022-12-07T14:45:10;11.23;;;5.00;;
69900;SDS011;57183;50.930;5.406;2022-12-07T14:47:43;8.57;;;5.28;;
69900;SDS011;57183;50.930;5.406;2022-12-07T14:50:11;12.23;;;5.47;;
69900;SDS011;57183;50.930;5.406;2022-12-07T14:52:38;7.30;;;5.20;;
69900;SDS011;57183;50.930;5.406;2022-12-07T14:55:08;11.68;;;6.10;;
69900;SDS011;57183;50.930;5.406;2022-12-07T14:57:39;11.13;;;5.47;;
69900;SDS011;57183;50.930;5.406;2022-12-07T15:00:05;8.88;;;5.95;;
69900;SDS011;57183;50.930;5.406;2022-12-07T15:02:31;8.55;;;5.28;;
69900;SDS011;57183;50.930;5.406;2022-12-07T15:04:56;8.63;;;5.90;;
69900;SDS011;57183;50.930;5.406;2022-12-07T15:07:22;13.35;;;5.20;;
69900;SDS011;57183;50.930;5.406;2022-12-07T15:09:48;8.07;;;5.70;;
69900;SDS011;57183;50.930;5.406;2022-12-07T15:12:14;10.77;;;4.82;;
69900;SDS011;57183;50.930;5.406;2022-12-07T15:14:40;9.43;;;5.28;;
69900;SDS011;57183;50.930;5.406;2022-12-07T15:17:06;9.75;;;5.55;;
69900;SDS011;57183;50.930;5.406;2022-12-07T15:19:34;12.57;;;5.43;;
69900;SDS011;57183;50.930;5.406;2022-12-07T15:22:00;14.07;;;5.32;;
69900;SDS011;57183;50.930;5.406;2022-12-07T15:24:26;8.93;;;4.68;;
69900;SDS011;57183;50.930;5.406;2022-12-07T15:26:52;8.63;;;5.38;;
69900;SDS011;57183;50.930;5.406;2022-12-07T15:29:18;7.72;;;5.18;;
69900;SDS011;57183;50.930;5.406;2022-12-07T15:31:43;7.32;;;5.15;;
69900;SDS011;57183;50.930;5.406;2022-12-07T15:34:10;10.07;;;5.18;;
69900;SDS011;57183;50.930;5.406;2022-12-07T15:36:36;9.32;;;5.35;;
69900;SDS011;57183;50.930;5.406;2022-12-07T15:39:02;9.07;;;5.15;;
69900;SDS011;57183;50.930;5.406;2022-12-07T15:41:28;10.15;;;5.53;;
69900;SDS011;57183;50.930;5.406;2022-12-07T15:43:54;9.27;;;5.50;;
69900;SDS011;57183;50.930;5.406;2022-12-07T15:46:39;6.75;;;4.90;;
69900;SDS011;57183;50.930;5.406;2022-12-07T15:49:07;8.30;;;5.07;;
69900;SDS011;57183;50.930;5.406;2022-12-07T15:51:36;10.27;;;5.30;;
69900;SDS011;57183;50.930;5.406;2022-12-07T15:54:01;12.70;;;5.53;;
69900;SDS011;57183;50.930;5.406;2022-12-07T15:56:27;7.03;;;4.97;;
69900;SDS011;57183;50.930;5.406;2022-12-07T15:58:53;12.68;;;6.03;;
69900;SDS011;57183;50.930;5.406;2022-12-07T16:01:21;10.00;;;5.85;;
69900;SDS011;57183;50.930;5.406;2022-12-07T16:03:47;10.50;;;5.45;;
69900;SDS011;57183;50.930;5.406;2022-12-07T16:06:15;10.20;;;5.60;;
69900;SDS011;57183;50.930;5.406;2022-12-07T16:08:44;20.20;;;15.23;;
69900;SDS011;57183;50.930;5.406;2022-12-07T16:11:11;7.28;;;6.25;;
69900;SDS011;57183;50.930;5.406;2022-12-07T16:13:37;9.10;;;5.20;;
69900;SDS011;57183;50.930;5.406;2022-12-07T16:16:08;10.52;;;5.47;;
69900;SDS011;57183;50.930;5.406;2022-12-07T16:18:36;8.63;;;5.00;;
69900;SDS011;57183;50.930;5.406;2022-12-07T16:21:02;6.43;;;3.60;;
69900;SDS011;57183;50.930;5.406;2022-12-07T16:23:29;8.95;;;4.03;;
69900;SDS011;57183;50.930;5.406;2022-12-07T16:25:54;6.55;;;4.32;;
69900;SDS011;57183;50.930;5.406;2022-12-07T16:28:27;6.93;;;3.85;;
69900;SDS011;57183;50.930;5.406;2022-12-07T16:30:59;5.45;;;2.90;;
69900;SDS011;57183;50.930;5.406;2022-12-07T16:33:30;4.82;;;3.33;;
69900;SDS011;57183;50.930;5.406;2022-12-07T16:35:55;5.22;;;3.70;;
69900;SDS011;57183;50.930;5.406;2022-12-07T16:38:22;9.10;;;4.65;;
69900;SDS011;57183;50.930;5.406;2022-12-07T16:40:48;6.50;;;3.55;;
69900;SDS011;57183;50.930;5.406;2022-12-07T16:43:14;6.38;;;4.47;;
69900;SDS011;57183;50.930;5.406;2022-12-07T16:45:40;8.88;;;5.18;;
69900;SDS011;57183;50.930;5.406;2022-12-07T16:48:05;6.72;;;4.75;;
69900;SDS011;57183;50.930;5.406;2022-12-07T16:50:31;5.65;;;3.90;;
69900;SDS011;57183;50.930;5.406;2022-12-07T16:52:57;5.38;;;4.22;;
69900;SDS011;57183;50.930;5.406;2022-12-07T16:55:22;5.40;;;4.43;;
69900;SDS011;57183;50.930;5.406;2022-12-07T16:57:48;6.47;;;3.78;;
69900;SDS011;57183;50.930;5.406;2022-12-07T17:00:15;9.02;;;4.40;;
69900;SDS011;57183;50.930;5.406;2022-12-07T17:02:42;6.60;;;4.75;;